CST,Max TemperatureF,Mean TemperatureF,Min TemperatureF,Max Dew PointF,MeanDew PointF,Min DewpointF,Max Humidity, Mean Humidity, Min Humidity, Max Sea Level PressureIn, Mean Sea Level PressureIn, Min Sea Level PressureIn, Max VisibilityMiles, Mean VisibilityMiles, Min VisibilityMiles, Max Wind SpeedMPH, Mean Wind SpeedMPH, Max Gust SpeedMPH,PrecipitationIn, CloudCover, Events, WindDirDegrees
2012-11-1,82,66,50,51,43,37,71,47,20,30.03,29.95,29.88,10,10,10,12,7,,0.00,0,,151
2012-11-2,87,71,55,54,44,26,87,48,11,29.92,29.87,29.79,10,10,10,13,10,16,0.00,0,,170
2012-11-3,79,66,55,51,46,41,77,53,28,30.06,29.97,29.85,10,10,8,17,9,21,0.05,2,Rain,199
2012-11-4,75,60,46,50,47,43,89,64,38,30.14,30.08,30.02,10,10,10,12,5,,0.00,0,,241
2012-11-5,73,63,53,47,39,24,71,48,17,30.13,30.07,30.00,10,10,10,16,11,21,0.00,0,,264
2012-11-6,80,64,48,41,37,30,66,41,16,30.14,30.07,30.01,10,10,10,12,7,,0.00,0,,150
2012-11-7,84,68,52,49,39,31,61,40,15,30.10,30.01,29.91,10,10,8,14,7,,0.00,0,,168
2012-11-8,86,70,55,52,40,28,60,38,13,29.95,29.87,29.81,10,10,10,20,13,25,0.00,0,,190
2012-11-9,84,70,55,56,48,38,72,50,20,29.91,29.83,29.75,10,10,10,21,10,29,0.00,0,,147
2012-11-10,84,72,59,56,49,33,75,51,16,29.80,29.71,29.61,10,10,10,25,17,38,0.00,0,,175
2012-11-11,64,54,43,54,26,5,78,37,15,30.26,29.96,29.68,10,10,10,22,9,30,0.00,2,,317
2012-11-12,55,44,34,11,5,1,31,21,11,30.45,30.36,30.29,10,10,10,8,6,,0.00,0,,206
2012-11-13,60,52,42,25,21,14,51,34,21,30.31,30.23,30.12,10,10,10,21,10,26,0.00,0,,140
2012-11-14,63,48,33,32,24,21,61,42,21,30.33,30.23,30.13,10,10,10,13,6,,0.00,0,,162
2012-11-15,71,54,37,39,33,29,80,50,21,30.18,30.12,30.06,10,10,10,10,6,,0.00,0,,146
2012-11-16,64,56,48,47,36,22,77,51,28,30.29,30.21,30.16,10,10,10,18,7,25,0.00,1,,165
2012-11-17,70,61,52,48,47,44,83,68,44,30.25,30.15,30.06,10,10,10,18,14,25,0.00,2,,149
2012-11-18,70,62,54,50,48,45,75,66,47,30.10,30.05,29.99,10,10,10,15,10,,0.00,2,,143
2012-11-19,77,65,53,50,46,42,80,57,31,30.16,30.10,30.06,10,10,10,10,7,16,0.00,1,,206
2012-11-20,73,60,48,45,38,34,74,48,24,30.22,30.14,30.09,10,10,10,10,7,,0.00,0,,195
2012-11-21,75,64,53,52,48,44,83,58,33,30.14,30.06,30.00,10,10,10,15,8,23,0.00,0,,158
2012-11-22,81,68,55,53,43,33,81,49,18,30.04,29.98,29.92,10,10,10,15,9,18,0.01,1,Rain,234
2012-11-23,61,54,46,45,26,19,62,36,24,30.44,30.33,30.04,10,10,10,14,10,21,0.00,2,,20
2012-11-24,70,54,39,38,29,19,57,39,26,30.40,30.19,29.99,10,10,10,14,7,,0.00,0,,164
2012-11-25,81,66,50,44,36,28,66,39,14,29.97,29.87,29.79,10,10,10,24,14,33,0.00,0,,238
2012-11-26,75,62,46,38,32,22,52,35,15,30.27,29.97,29.83,10,10,10,16,11,,0.00,1,,315
2012-11-27,57,45,33,28,25,21,70,46,28,30.42,30.32,30.25,10,10,10,12,6,,0.00,0,,71
2012-11-28,75,58,41,41,36,28,74,49,17,30.27,30.18,30.09,10,10,10,18,7,26,0.00,0,,145
2012-11-29,77,62,46,40,37,29,73,46,18,30.08,30.04,29.96,10,10,10,18,11,,0.00,0,,183
2012-11-30,81,66,50,43,34,22,74,39,11,30.07,29.99,29.92,10,10,10,14,8,,0.00,0,,201